Time;durP1;ratioP1;P1;durP2;ratioP2;P2;SDS_P1;SDS_P2;PMS_P1;PMS_P2;Temp;Humidity;BMP_temperature;BMP_pressure;BME280_temperature;BME280_humidity;BME280_pressure;Samples;Min_cycle;Max_cycle;Signal;HPM_P1;HPM_P2
2023/02/08 00:02:35;;;;;;;52.05;26.17;;;;;;;-7.49;64.92;103154.92;1771491;80;21158;-57
2023/02/08 00:06:11;;;;;;;70.50;32.20;;;;;;;-7.59;64.76;103153.57;1773943;79;21430;-58
2023/02/08 00:09:37;;;;;;;78.52;34.80;;;;;;;-7.70;64.72;103152.64;1772130;79;21399;-58
2023/02/08 00:12:56;;;;;;;62.25;32.67;;;;;;;-7.72;64.78;103159.72;1771840;80;21370;-58
2023/02/08 00:16:28;;;;;;;62.25;30.50;;;;;;;-7.76;64.77;103161.03;1772363;79;21166;-57
2023/02/08 00:20:10;;;;;;;61.37;31.57;;;;;;;-7.76;64.87;103163.70;1765792;79;21390;-56
2023/02/08 00:23:26;;;;;;;57.30;28.67;;;;;;;-7.74;64.95;103172.54;1783058;79;21702;-59
2023/02/08 00:26:48;;;;;;;56.30;27.77;;;;;;;-7.72;64.92;103178.76;1772236;80;21472;-57
2023/02/08 00:30:30;;;;;;;60.40;28.65;;;;;;;-7.70;64.99;103184.55;1773093;79;21339;-57
2023/02/08 00:34:02;;;;;;;54.30;26.60;;;;;;;-7.76;64.87;103188.95;1772565;81;21201;-57
2023/02/08 00:37:21;;;;;;;55.35;28.52;;;;;;;-7.84;64.79;103181.38;1772628;81;21181;-58
2023/02/08 00:40:46;;;;;;;50.98;24.50;;;;;;;-7.90;64.78;103182.67;1771940;79;21244;-57
2023/02/08 00:44:03;;;;;;;52.30;27.48;;;;;;;-7.94;64.76;103188.84;1762011;79;21399;-57
2023/02/08 00:47:22;;;;;;;62.90;28.75;;;;;;;-8.00;64.69;103186.58;1778634;80;21252;-57
2023/02/08 00:50:55;;;;;;;64.72;28.90;;;;;;;-8.06;64.75;103186.13;1774110;79;21189;-57
2023/02/08 00:54:28;;;;;;;58.58;27.58;;;;;;;-8.04;64.94;103185.67;1767013;79;21406;-58
2023/02/08 00:57:48;;;;;;;49.90;24.25;;;;;;;-8.04;64.86;103182.14;1766570;79;21233;-59
2023/02/08 01:01:08;;;;;;;59.83;29.52;;;;;;;-8.06;64.80;103176.83;1830284;76;22295;-58
2023/02/08 01:04:24;;;;;;;45.88;22.42;;;;;;;-8.24;64.73;103185.13;1765367;79;21189;-57
2023/02/08 01:08:03;;;;;;;49.53;23.35;;;;;;;-8.33;64.69;103185.07;1764273;81;21173;-57
2023/02/08 01:11:47;;;;;;;57.78;29.45;;;;;;;-8.33;64.69;103185.07;1773396;80;21229;-57
2023/02/08 01:15:20;;;;;;;60.43;28.25;;;;;;;-8.44;64.64;103199.61;1772822;79;21367;-57
2023/02/08 01:18:50;;;;;;;54.63;25.50;;;;;;;-8.45;64.73;103201.80;1754594;79;21239;-57
2023/02/08 01:22:10;;;;;;;60.08;27.98;;;;;;;-8.46;64.81;103202.69;1772393;79;21149;-58
2023/02/08 01:25:49;;;;;;;53.33;25.17;;;;;;;-8.55;64.82;103222.53;1772162;79;21368;-59
2023/02/08 01:29:10;;;;;;;51.10;23.98;;;;;;;-8.53;64.73;103218.10;1877421;76;22186;-58
2023/02/08 01:32:23;;;;;;;57.85;26.33;;;;;;;-8.69;64.68;103219.30;1805315;79;21188;-58
2023/02/08 01:35:37;;;;;;;54.48;26.93;;;;;;;-8.75;64.75;103218.79;1805796;79;21374;-57
2023/02/08 01:39:00;;;;;;;47.80;22.17;;;;;;;-8.75;64.75;103218.79;1805627;79;21268;-57
2023/02/08 01:42:17;;;;;;;52.20;23.47;;;;;;;-8.75;64.89;103217.46;1806218;79;21319;-58
2023/02/08 01:45:51;;;;;;;46.75;22.32;;;;;;;-8.82;64.83;103232.89;1789369;79;21359;-57
2023/02/08 01:49:20;;;;;;;57.65;27.30;;;;;;;-8.85;64.88;103219.60;1805598;79;21346;-57
2023/02/08 01:52:40;;;;;;;49.33;23.27;;;;;;;-8.88;64.83;103231.94;1805957;79;21197;-58
2023/02/08 01:55:59;;;;;;;55.92;25.68;;;;;;;-8.96;64.82;103223.02;1805885;79;21358;-57
2023/02/08 01:59:35;;;;;;;51.13;24.27;;;;;;;-8.98;64.91;103236.27;1805558;79;21338;-57
2023/02/08 02:03:03;;;;;;;50.90;25.55;;;;;;;-8.97;64.96;103243.34;1790285;79;21177;-56
2023/02/08 02:06:38;;;;;;;51.88;22.82;;;;;;;-8.98;65.00;103248.20;1804496;79;21212;-58
2023/02/08 02:10:19;;;;;;;52.50;25.43;;;;;;;-8.95;65.17;103242.02;1805722;79;21347;-58
2023/02/08 02:13:39;;;;;;;45.70;22.50;;;;;;;-8.95;65.17;103242.02;1804623;79;21181;-58
2023/02/08 02:17:04;;;;;;;65.05;26.05;;;;;;;-8.90;65.15;103251.83;1804749;79;21168;-56
2023/02/08 02:20:46;;;;;;;47.40;22.60;;;;;;;-8.93;65.14;103260.19;1806418;79;21251;-58
2023/02/08 02:24:48;;;;;;;54.23;25.20;;;;;;;-8.90;65.23;103250.50;1806081;79;21252;-57
2023/02/08 02:28:44;;;;;;;50.78;23.27;;;;;;;-8.93;65.17;103266.39;1799059;79;21690;-58
2023/02/08 02:32:21;;;;;;;52.85;26.00;;;;;;;-8.87;65.29;103283.70;1786855;79;21216;-57
2023/02/08 02:36:11;;;;;;;51.90;21.97;;;;;;;-8.90;65.14;103279.69;1835304;76;22712;-57
2023/02/08 02:39:46;;;;;;;47.48;22.32;;;;;;;-9.04;65.07;103282.62;1765403;79;21707;-57
2023/02/08 02:43:45;;;;;;;49.38;24.27;;;;;;;-9.04;65.07;103282.62;1774099;80;21165;-57
2023/02/08 02:47:10;;;;;;;50.40;23.38;;;;;;;-9.07;65.08;103293.21;1760184;80;21335;-57
2023/02/08 02:50:45;;;;;;;46.48;20.70;;;;;;;-9.12;64.78;103290.03;1774287;79;21759;-58
2023/02/08 02:54:33;;;;;;;50.78;24.92;;;;;;;-9.08;65.11;103295.39;1877402;76;22202;-57
2023/02/08 02:57:52;;;;;;;51.25;25.43;;;;;;;-9.16;65.12;103305.02;1806202;79;21189;-56
2023/02/08 03:01:15;;;;;;;41.55;19.25;;;;;;;-9.13;65.20;103305.05;1805962;79;21264;-57
2023/02/08 03:04:47;;;;;;;54.18;24.37;;;;;;;-9.20;65.01;103305.86;1804254;79;21248;-57
2023/02/08 03:08:50;;;;;;;50.25;25.00;;;;;;;-9.31;65.02;103305.70;1805630;79;21204;-57
2023/02/08 03:12:34;;;;;;;49.85;24.05;;;;;;;-9.24;65.23;103311.98;1805360;79;21209;-58
2023/02/08 03:16:18;;;;;;;55.43;23.67;;;;;;;-9.18;65.36;103300.16;1730689;79;21214;-57
2023/02/08 03:19:46;;;;;;;54.88;24.80;;;;;;;-9.14;65.39;103305.93;1720258;83;21291;-58
2023/02/08 03:23:38;;;;;;;52.08;23.87;;;;;;;-9.18;65.18;103312.52;1718736;83;21205;-59
2023/02/08 03:27:16;;;;;;;58.83;27.27;;;;;;;-9.27;65.12;103326.53;1712810;83;21378;-59
2023/02/08 03:31:32;;;;;;;52.00;23.42;;;;;;;-9.32;65.04;103317.62;1711476;83;21263;-56
2023/02/08 03:34:59;;;;;;;55.17;24.90;;;;;;;-9.35;65.19;103316.25;1712915;84;21741;-57
2023/02/08 03:38:50;;;;;;;51.10;24.00;;;;;;;-9.36;65.19;103323.77;1701385;84;21236;-57
2023/02/08 03:42:34;;;;;;;48.10;21.77;;;;;;;-9.44;65.12;103326.32;1712499;83;21263;-57
2023/02/08 03:46:32;;;;;;;48.48;23.42;;;;;;;-9.52;65.09;103339.00;1705502;83;21575;-59
2023/02/08 03:50:27;;;;;;;43.02;19.60;;;;;;;-9.61;65.09;103341.53;1712156;84;21208;-56
2023/02/08 03:53:45;;;;;;;47.15;22.50;;;;;;;-9.65;65.08;103344.98;1712052;83;21216;-56
2023/02/08 03:57:44;;;;;;;51.63;22.20;;;;;;;-9.63;65.26;103346.81;1684204;84;21224;-57
2023/02/08 04:01:00;;;;;;;43.68;20.12;;;;;;;-9.54;65.42;103343.38;1709321;83;21216;-56
2023/02/08 04:05:01;;;;;;;43.13;18.45;;;;;;;-9.41;65.41;103348.00;1823947;77;22320;-58
2023/02/08 04:22:32;;;;;;;38.98;17.82;;;;;;;-9.75;65.08;103358.98;1858871;76;22258;-57
2023/02/08 04:25:45;;;;;;;52.15;23.40;;;;;;;-9.82;65.16;103366.36;1759835;80;21331;-56
2023/02/08 04:29:10;;;;;;;;;;;;;;;-9.84;65.18;103369.41;1806590;79;21480;-57
2023/02/08 04:32:41;;;;;;;56.10;24.47;;;;;;;-9.88;65.18;103371.58;1805156;79;20255;-58
2023/02/08 04:35:49;;;;;;;60.15;25.95;;;;;;;-9.86;65.38;103365.42;1804234;79;21228;-57
2023/02/08 04:39:14;;;;;;;57.25;24.50;;;;;;;-9.84;65.37;103371.64;1804220;79;21209;-56
2023/02/08 04:42:29;;;;;;;44.60;20.08;;;;;;;-9.83;65.40;103368.57;1804585;78;21244;-58
2023/02/08 04:45:58;;;;;;;57.45;25.43;;;;;;;-9.87;65.26;103383.94;1797871;79;21355;-58
2023/02/08 04:49:18;;;;;;;57.58;23.98;;;;;;;-9.93;65.26;103392.70;1798815;78;21185;-56
2023/02/08 04:52:50;;;;;;;56.80;23.27;;;;;;;-9.93;65.31;103395.34;1789947;78;21208;-59
2023/02/08 04:56:14;;;;;;;55.58;23.67;;;;;;;-9.96;65.25;103403.24;1803425;78;21179;-59
2023/02/08 04:59:37;;;;;;;50.60;23.10;;;;;;;-10.02;65.21;103411.05;1804147;78;21201;-57
2023/02/08 05:03:05;;;;;;;44.77;22.30;;;;;;;-10.02;65.31;103408.41;1804511;78;21745;-58
2023/02/08 05:06:39;;;;;;;48.08;21.95;;;;;;;-10.05;65.19;103418.09;1803909;79;21213;-58
2023/02/08 05:09:51;;;;;;;48.02;22.02;;;;;;;-10.12;65.24;103413.56;1795655;78;21165;-56
2023/02/08 05:13:13;;;;;;;48.52;21.95;;;;;;;-10.12;65.30;103429.45;1803476;79;21335;-58
2023/02/08 05:16:30;;;;;;;50.92;23.22;;;;;;;-10.07;65.38;103431.76;1745855;78;21751;-57
2023/02/08 05:19:52;;;;;;;55.48;24.82;;;;;;;-10.07;65.32;103435.28;1744288;81;21923;-56
2023/02/08 05:23:11;;;;;;;48.35;21.68;;;;;;;-10.08;65.33;103447.17;1744675;82;21402;-57
2023/02/08 05:26:38;;;;;;;51.95;22.90;;;;;;;-10.06;65.39;103441.02;1741787;81;21259;-56
2023/02/08 05:30:20;;;;;;;51.15;22.48;;;;;;;-10.04;65.38;103446.34;1727081;82;21251;-57
2023/02/08 05:33:52;;;;;;;50.12;23.57;;;;;;;-9.97;65.45;103452.23;1744404;82;21209;-57
2023/02/08 05:37:19;;;;;;;48.35;23.27;;;;;;;-9.95;65.44;103449.15;1716748;82;21217;-57
2023/02/08 05:40:52;;;;;;;56.60;25.00;;;;;;;-9.91;65.42;103451.88;1743030;82;21236;-56
2023/02/08 05:44:15;;;;;;;58.13;24.95;;;;;;;-9.87;65.45;103456.38;1728939;82;21869;-57
2023/02/08 05:47:41;;;;;;;61.53;27.20;;;;;;;-9.83;65.43;103448.06;1689268;84;21947;-58
2023/02/08 05:51:23;;;;;;;62.58;27.85;;;;;;;-9.78;65.44;103462.25;1714082;83;21777;-57
2023/02/08 05:54:41;;;;;;;120.30;40.12;;;;;;;-9.61;65.68;103456.83;1715421;83;21209;-58
2023/02/08 05:58:19;;;;;;;152.32;49.70;;;;;;;-9.41;65.83;103452.73;1713545;83;21217;-57
2023/02/08 06:01:54;;;;;;;128.72;42.17;;;;;;;-9.29;65.75;103452.04;1680039;84;21820;-57
2023/02/08 06:17:14;;;;;;;78.22;30.75;;;;;;;-9.11;65.55;103465.13;1673505;85;21284;-57
2023/02/08 06:43:47;;;;;;;56.33;24.70;;;;;;;-8.28;65.95;103487.50;1787805;76;21211;-58
2023/02/08 06:57:50;;;;;;;36.05;17.92;;;;;;;-7.52;65.85;103487.38;1779633;77;22300;-58
2023/02/08 08:01:58;;;;;;;40.38;19.30;;;;;;;-6.01;65.73;103517.17;1715390;79;21227;-58
2023/02/08 08:05:17;;;;;;;42.78;19.62;;;;;;;-5.85;65.80;103514.97;1663698;83;21350;-58
2023/02/08 08:27:42;;;;;;;47.98;23.15;;;;;;;-5.54;65.58;103539.48;1696732;78;21252;-57
2023/02/08 09:57:47;;;;;;;33.67;16.55;;;;;;;-2.81;65.14;103516.98;1876635;76;22823;-59
2023/02/08 10:01:12;;;;;;;33.05;15.20;;;;;;;-2.82;65.20;103518.77;1746189;79;21287;-58
2023/02/08 10:05:10;;;;;;;38.28;18.32;;;;;;;-2.74;65.17;103508.86;1750181;79;21251;31
2023/02/08 10:08:27;;;;;;;33.08;17.17;;;;;;;-2.72;65.03;103503.05;1657227;84;21235;-59
2023/02/08 10:12:44;;;;;;;37.85;18.87;;;;;;;-2.64;65.05;103508.31;1601968;84;21295;-59
2023/02/08 10:16:50;;;;;;;52.70;22.17;;;;;;;-2.62;64.81;103513.22;1834913;74;22730;-59
2023/02/08 10:24:43;;;;;;;31.17;14.65;;;;;;;-2.66;64.72;103516.86;1804798;76;21187;-58
2023/02/08 10:28:54;;;;;;;;;;;;;;;;;;;;;
2023/02/08 10:32:36;;;;;;;36.17;16.12;;;;;;;-2.77;64.52;103516.04;1836432;74;22787;-58
2023/02/08 10:36:03;;;;;;;48.13;18.70;;;;;;;-2.95;64.46;103514.45;1787983;77;21622;-59
2023/02/08 10:39:50;;;;;;;47.03;19.37;;;;;;;-3.00;64.44;103516.28;1807740;77;21241;-57
2023/02/08 10:51:17;;;;;;;42.93;19.20;;;;;;;-2.95;64.56;103516.23;1774818;78;21253;-57
2023/02/08 11:09:29;;;;;;;30.47;14.67;;;;;;;-1.99;64.78;103516.48;1703440;79;21451;31
2023/02/08 11:34:43;;;;;;;33.58;16.42;;;;;;;-2.15;64.45;103491.66;1759392;79;22171;31
2023/02/08 11:52:46;;;;;;;30.85;15.80;;;;;;;-2.02;64.16;103512.50;1780203;77;22108;-59
2023/02/08 11:56:33;;;;;;;26.48;14.68;;;;;;;-1.98;64.28;103527.20;1825554;78;21701;-59
2023/02/08 12:27:54;;;;;;;28.90;12.25;;;;;;;-1.40;64.10;103505.80;1794190;78;21170;-60
2023/02/08 12:31:52;;;;;;;28.00;14.63;;;;;;;-1.47;63.77;103511.30;1772386;78;21780;-59
2023/02/08 12:36:23;;;;;;;25.05;13.88;;;;;;;-1.67;63.85;103507.55;1762928;78;21252;-60
2023/02/08 12:52:30;;;;;;;27.00;15.25;;;;;;;-1.31;63.89;103504.30;1749681;77;21283;-60
2023/02/08 13:10:48;;;;;;;20.77;12.13;;;;;;;-1.35;63.93;103481.53;1731723;79;21295;-57
2023/02/08 13:22:01;;;;;;;22.90;12.00;;;;;;;-1.34;63.81;103502.11;1722852;77;21701;-62
2023/02/08 13:36:09;;;;;;;31.60;14.78;;;;;;;-1.36;63.98;103479.77;1806260;74;22911;-60
2023/02/08 13:39:55;;;;;;;22.98;13.35;;;;;;;-1.37;64.05;103490.07;1758235;79;21299;-58
2023/02/08 13:43:35;;;;;;;28.63;12.13;;;;;;;-1.37;63.87;103479.33;1715797;80;21290;-59
2023/02/08 13:47:03;;;;;;;22.13;12.15;;;;;;;-1.50;63.79;103486.69;1740992;79;21348;-60
2023/02/08 13:51:01;;;;;;;20.40;12.03;;;;;;;-1.41;63.85;103482.51;1835828;76;22396;-58
2023/02/08 13:55:29;;;;;;;21.57;10.95;;;;;;;-1.45;63.88;103486.17;1723495;82;21264;-58
2023/02/08 13:59:09;;;;;;;20.23;10.50;;;;;;;-1.43;63.89;103478.09;1704332;83;21219;-58
2023/02/08 14:06:37;;;;;;;15.78;9.35;;;;;;;-1.46;63.83;103472.31;1685908;82;21941;-58
2023/02/08 14:10:54;;;;;;;18.65;10.65;;;;;;;-1.44;63.71;103465.58;1701412;82;21352;-57
2023/02/08 14:14:53;;;;;;;27.60;17.65;;;;;;;-1.46;63.74;103478.13;1722899;78;21247;-59
2023/02/08 14:29:00;;;;;;;21.35;13.10;;;;;;;-1.65;63.41;103467.66;1811814;79;22275;-59
2023/02/08 14:32:33;;;;;;;21.00;12.20;;;;;;;-1.77;63.25;103465.17;1726822;82;21649;-58
2023/02/08 14:36:42;;;;;;;21.57;12.33;;;;;;;-1.94;63.14;103462.30;1616449;84;21330;-57
2023/02/08 14:40:23;;;;;;;23.67;13.70;;;;;;;-2.26;62.86;103464.52;1613798;88;21288;-62
2023/02/08 14:43:56;;;;;;;31.57;16.70;;;;;;;-2.58;62.77;103461.32;1597550;88;21249;-60
2023/02/08 14:47:41;;;;;;;26.85;13.25;;;;;;;-2.83;62.87;103467.86;1594563;89;21506;-57
2023/02/08 14:55:35;;;;;;;22.37;12.95;;;;;;;-3.16;63.04;103474.45;1594850;89;21651;-59
2023/02/08 14:59:12;;;;;;;23.38;13.45;;;;;;;-3.46;62.96;103474.70;1590661;89;21256;-59
2023/02/08 15:02:40;;;;;;;25.12;15.30;;;;;;;-3.73;62.93;103480.24;1570073;89;21352;-58
2023/02/08 15:06:13;;;;;;;25.80;14.58;;;;;;;-3.87;63.09;103489.67;1615984;88;21249;-58
2023/02/08 15:09:37;;;;;;;33.02;17.02;;;;;;;-3.90;63.31;103491.03;1600726;88;21344;-59
2023/02/08 15:13:01;;;;;;;34.45;22.00;;;;;;;-3.88;63.52;103499.95;1581842;88;21541;-58
2023/02/08 15:16:21;;;;;;;45.25;22.75;;;;;;;-3.83;63.68;103493.23;1596328;88;21252;-59
2023/02/08 15:19:44;;;;;;;37.45;18.40;;;;;;;-3.82;63.68;103497.23;1578596;89;21361;-58
2023/02/08 15:23:10;;;;;;;39.60;19.07;;;;;;;-3.90;63.65;103491.51;1591972;89;21279;-58
2023/02/08 15:26:36;;;;;;;41.30;20.70;;;;;;;-4.01;63.51;103495.56;1614219;88;21265;-58
2023/02/08 15:29:50;;;;;;;33.40;17.40;;;;;;;-4.28;63.20;103488.99;1581421;90;21823;-59
2023/02/08 15:33:22;;;;;;;35.40;18.12;;;;;;;-4.54;63.08;103498.01;1585097;90;21261;-57
2023/02/08 15:36:41;;;;;;;36.65;19.05;;;;;;;-4.72;63.12;103491.83;1593300;88;21316;-58
2023/02/08 15:39:54;;;;;;;33.78;17.57;;;;;;;-4.87;63.20;103490.97;1642736;87;21248;-58
2023/02/08 15:43:12;;;;;;;32.48;17.23;;;;;;;-4.95;63.27;103491.44;1615836;88;21261;-60
2023/02/08 15:46:32;;;;;;;33.40;17.67;;;;;;;-4.96;63.42;103500.31;1642515;87;21218;-58
2023/02/08 15:49:54;;;;;;;33.50;17.12;;;;;;;-5.03;63.37;103500.80;1642134;85;21201;-58
2023/02/08 15:53:12;;;;;;;30.75;16.48;;;;;;;-5.15;63.29;103499.45;1637740;87;21271;-58
2023/02/08 15:56:36;;;;;;;33.45;15.75;;;;;;;-5.22;63.33;103508.80;1647605;86;21199;-57
2023/02/08 15:59:46;;;;;;;27.82;14.07;;;;;;;-5.31;63.34;103511.48;1663103;84;22057;-58
2023/02/08 16:03:15;;;;;;;32.17;16.50;;;;;;;-5.41;63.32;103509.69;1703062;83;21550;-58
2023/02/08 16:06:39;;;;;;;29.25;14.93;;;;;;;-5.50;63.28;103509.22;1676285;84;21817;-58
2023/02/08 16:09:57;;;;;;;32.25;16.00;;;;;;;-5.64;63.28;103509.66;1675566;85;21765;-57
2023/02/08 16:13:33;;;;;;;31.52;15.58;;;;;;;-5.75;63.28;103512.74;1670267;85;21773;-57
2023/02/08 16:16:53;;;;;;;32.08;16.42;;;;;;;-5.91;63.19;103504.76;1677117;85;21233;-58
2023/02/08 16:20:44;;;;;;;29.72;14.83;;;;;;;-6.08;63.17;103511.36;1676247;85;21248;-57
2023/02/08 16:24:32;;;;;;;42.40;18.85;;;;;;;-6.25;63.20;103509.08;1672483;84;21383;-58
2023/02/08 16:27:56;;;;;;;35.43;17.55;;;;;;;-6.40;63.25;103513.89;1677907;85;21825;-59
2023/02/08 16:31:23;;;;;;;43.05;19.35;;;;;;;-6.48;63.36;103512.06;1667416;85;22181;-57
2023/02/08 16:34:51;;;;;;;46.83;18.10;;;;;;;-6.50;63.48;103520.52;1682214;84;21263;-60
2023/02/08 16:38:22;;;;;;;33.80;16.15;;;;;;;-6.46;63.67;103521.86;1636666;86;21830;-61
2023/02/08 16:42:00;;;;;;;33.42;17.20;;;;;;;-6.49;63.57;103532.51;1639790;86;21707;-58
2023/02/08 16:45:21;;;;;;;31.93;15.30;;;;;;;-6.55;63.53;103532.91;1647219;87;21663;-57
2023/02/08 16:49:16;;;;;;;29.23;15.75;;;;;;;-6.61;63.52;103535.08;1632158;86;21238;-60
2023/02/08 16:52:36;;;;;;;29.40;15.30;;;;;;;-6.73;63.44;103531.45;1569329;90;21336;-57
2023/02/08 16:55:51;;;;;;;34.40;15.00;;;;;;;-6.80;63.43;103530.52;1568803;90;21256;-58
2023/02/08 16:59:12;;;;;;;30.62;14.93;;;;;;;-6.84;63.50;103524.73;1599414;88;21273;-58
2023/02/08 17:02:25;;;;;;;29.35;15.85;;;;;;;-6.88;63.49;103519.39;1577731;90;21319;-58
2023/02/08 17:05:39;;;;;;;25.77;13.00;;;;;;;-6.94;63.50;103529.53;1598028;90;21356;-59
2023/02/08 17:09:18;;;;;;;24.77;13.05;;;;;;;-6.97;63.54;103533.94;1590137;89;21229;-57
2023/02/08 17:12:52;;;;;;;27.48;13.38;;;;;;;-6.98;63.60;103536.16;1595335;90;21268;-56
2023/02/08 17:16:11;;;;;;;27.52;13.88;;;;;;;-6.98;63.64;103530.84;1569612;89;21274;-58
2023/02/08 17:19:24;;;;;;;31.50;14.13;;;;;;;-7.01;63.54;103538.37;1572291;88;21257;-59
2023/02/08 17:22:40;;;;;;;28.10;13.60;;;;;;;-7.11;63.45;103535.61;1582598;90;21249;-59
2023/02/08 17:26:03;;;;;;;26.57;13.30;;;;;;;-7.16;63.48;103525.36;1556655;91;21273;-58
2023/02/08 17:29:24;;;;;;;30.05;15.28;;;;;;;-7.20;63.49;103523.14;1563431;89;21280;-58
2023/02/08 17:32:46;;;;;;;26.05;13.32;;;;;;;-7.29;63.39;103527.03;1589240;90;21971;-58
2023/02/08 17:36:11;;;;;;;42.13;16.87;;;;;;;-7.36;63.43;103524.31;1815029;76;22321;-58
2023/02/08 17:39:27;;;;;;;;;;;;;;;-7.44;63.44;103515.38;1769798;81;21370;-58
2023/02/08 17:42:40;;;;;;;36.25;17.10;;;;;;;-7.46;63.53;103510.47;1767556;81;20284;-56
2023/02/08 17:45:56;;;;;;;33.85;16.80;;;;;;;-7.48;63.51;103520.23;1767401;80;21263;-58
2023/02/08 17:49:24;;;;;;;31.48;15.10;;;;;;;-7.53;63.44;103515.30;1767639;80;21247;-57
2023/02/08 17:52:53;;;;;;;32.40;15.03;;;;;;;-7.61;63.43;103512.54;1758309;80;21712;-59
2023/02/08 17:56:16;;;;;;;37.65;16.50;;;;;;;-7.65;63.47;103504.52;1735508;81;21788;-59
2023/02/08 17:59:32;;;;;;;42.10;18.82;;;;;;;-7.67;63.42;103510.30;1719127;81;21370;-57
2023/02/08 18:02:53;;;;;;;39.25;18.32;;;;;;;-7.63;63.70;103505.44;1731668;80;21197;-59
2023/02/08 18:06:25;;;;;;;43.75;18.95;;;;;;;-7.53;63.73;103507.32;1770966;80;21275;-61
2023/02/08 18:10:23;;;;;;;50.65;20.88;;;;;;;-7.48;63.85;103513.58;1771121;80;21237;-58
2023/02/08 18:13:49;;;;;;;47.27;22.42;;;;;;;-7.41;63.88;103503.42;1771050;80;21217;-59
2023/02/08 18:17:17;;;;;;;33.80;17.87;;;;;;;-7.39;63.90;103512.32;1771157;80;21233;-58
2023/02/08 18:21:13;;;;;;;37.00;16.42;;;;;;;-7.41;63.73;103514.97;1761723;79;21205;-58
2023/02/08 18:24:52;;;;;;;35.85;17.07;;;;;;;-7.60;63.37;103520.09;1767734;80;21320;-58
2023/02/08 18:28:15;;;;;;;29.35;14.85;;;;;;;-7.74;63.31;103523.50;1857887;76;22278;-59
2023/02/08 18:31:35;;;;;;;32.70;15.15;;;;;;;-7.85;63.34;103513.66;1773280;80;21805;-56
2023/02/08 18:35:05;;;;;;;34.50;16.50;;;;;;;-7.95;63.29;103521.96;1770750;80;22315;-57
2023/02/08 18:38:26;;;;;;;29.95;16.15;;;;;;;-8.05;63.34;103522.72;1735272;82;21188;-58
2023/02/08 18:41:39;;;;;;;32.73;16.20;;;;;;;-8.07;63.41;103530.23;1772148;80;21343;-57
2023/02/08 18:45:17;;;;;;;33.55;17.48;;;;;;;-8.08;63.47;103530.66;1718827;82;21203;-57
2023/02/08 18:48:36;;;;;;;35.80;17.37;;;;;;;-8.14;63.41;103537.24;1771244;80;21244;-57
2023/02/08 18:51:58;;;;;;;39.20;18.50;;;;;;;-8.14;63.41;103537.24;1736730;82;21836;-57
2023/02/08 18:55:20;;;;;;;37.23;18.20;;;;;;;-8.14;63.57;103534.59;1770424;80;21174;-56
2023/02/08 18:58:49;;;;;;;36.95;17.65;;;;;;;-8.13;63.59;103535.03;1734680;82;21335;-57
2023/02/08 19:06:41;;;;;;;33.98;16.50;;;;;;;-8.12;63.64;103527.50;1672509;81;22378;-57
2023/02/08 19:10:20;;;;;;;33.13;16.82;;;;;;;-8.33;63.39;103527.30;1714947;82;21382;-57
2023/02/08 19:14:07;;;;;;;30.27;15.45;;;;;;;-8.33;63.39;103527.30;1699553;84;21386;-56
2023/02/08 19:17:42;;;;;;;35.08;17.77;;;;;;;-8.46;63.13;103525.34;1699556;84;21852;-57
2023/02/08 19:21:01;;;;;;;37.17;18.02;;;;;;;-8.46;63.13;103525.34;1699589;83;21458;-58
2023/02/08 19:24:24;;;;;;;41.18;18.32;;;;;;;-8.49;63.45;103514.69;1700018;83;21304;-56
2023/02/08 19:27:38;;;;;;;36.55;18.25;;;;;;;-8.55;63.25;103513.28;1699789;84;21299;-57
2023/02/08 19:31:25;;;;;;;39.25;18.82;;;;;;;-8.57;63.42;103508.37;1700083;83;21777;-56
2023/02/08 19:34:51;;;;;;;46.42;20.75;;;;;;;-8.65;63.32;103521.08;1700268;83;21229;-58
2023/02/08 19:38:19;;;;;;;46.83;15.15;;;;;;;-8.69;63.17;103513.96;1699869;83;22064;-58
2023/02/08 19:41:44;;;;;;;46.70;21.50;;;;;;;-8.63;63.37;103501.66;1699808;84;21212;-59
2023/02/08 19:45:05;;;;;;;54.75;25.88;;;;;;;-8.54;63.73;103508.41;1699572;83;21275;-58
2023/02/08 19:48:29;;;;;;;64.75;29.57;;;;;;;-8.47;63.83;103511.63;1699512;84;21189;-58
2023/02/08 19:52:03;;;;;;;57.45;26.95;;;;;;;-8.40;63.89;103508.16;1699214;84;21173;-58
2023/02/08 19:55:30;;;;;;;53.23;24.23;;;;;;;-8.40;63.89;103508.16;1699554;83;21228;-58
2023/02/08 19:58:57;;;;;;;46.77;23.77;;;;;;;-8.34;63.87;103502.91;1880952;76;22187;-58
2023/02/08 20:02:35;;;;;;;53.70;26.75;;;;;;;-8.22;63.91;103500.39;1804711;79;21192;-58
2023/02/08 20:06:06;;;;;;;53.52;24.43;;;;;;;-8.22;63.91;103500.39;1706990;84;21228;-57
2023/02/08 20:09:25;;;;;;;49.45;22.90;;;;;;;-8.14;64.00;103491.17;1773345;80;21195;-58
2023/02/08 20:12:48;;;;;;;51.28;25.48;;;;;;;-8.11;64.00;103486.78;1773330;81;21196;-59
2023/02/08 20:15:58;;;;;;;53.10;27.50;;;;;;;-7.99;64.19;103497.53;1773339;81;21255;-58
2023/02/08 20:19:15;;;;;;;51.37;25.80;;;;;;;-7.95;63.87;103493.16;1773447;80;21169;-58
2023/02/08 20:22:39;;;;;;;47.70;24.15;;;;;;;-7.95;63.87;103493.16;1773668;81;21188;-57
2023/02/08 20:26:39;;;;;;;35.70;18.32;;;;;;;-7.97;63.81;103498.88;1762158;80;21251;-56
2023/02/08 20:30:09;;;;;;;43.00;19.30;;;;;;;-8.04;63.63;103495.26;1773248;81;21228;-57
2023/02/08 20:33:28;;;;;;;43.92;21.23;;;;;;;-8.23;63.42;103501.73;1773554;81;21296;-58
2023/02/08 20:36:47;;;;;;;38.02;18.92;;;;;;;-8.27;63.42;103496.81;1773541;80;21227;-57
2023/02/08 20:40:06;;;;;;;41.10;20.48;;;;;;;-8.27;63.42;103496.81;1757475;81;21510;-57
2023/02/08 20:43:18;;;;;;;36.75;18.32;;;;;;;-8.28;63.40;103503.02;1773195;80;21184;-58
2023/02/08 20:46:40;;;;;;;42.45;20.17;;;;;;;-8.27;63.59;103502.55;1773302;81;21709;-58
2023/02/08 20:50:05;;;;;;;36.23;16.87;;;;;;;-8.37;63.34;103497.56;1773222;80;21938;-58
2023/02/08 20:53:34;;;;;;;39.53;19.60;;;;;;;-8.48;63.26;103488.57;1773229;81;21725;-59
2023/02/08 20:56:47;;;;;;;45.15;20.45;;;;;;;-8.63;63.10;103494.13;1773291;81;21800;-58
2023/02/08 20:59:58;;;;;;;37.78;17.75;;;;;;;-8.81;63.23;103504.47;1773804;80;21370;-57
2023/02/08 21:04:44;;;;;;;39.75;18.48;;;;;;;-8.85;63.33;103506.65;1773572;81;21319;-58
2023/02/08 21:08:50;;;;;;;39.18;18.80;;;;;;;-8.85;63.33;103506.65;1730355;81;21236;-57
2023/02/08 21:12:38;;;;;;;41.60;18.12;;;;;;;-8.84;63.41;103509.32;1772654;81;21185;-58
2023/02/08 21:16:16;;;;;;;38.75;19.17;;;;;;;-8.83;63.45;103508.90;1772501;81;21811;-57
2023/02/08 21:19:50;;;;;;;40.40;19.35;;;;;;;-8.98;63.26;103505.58;1760488;81;21362;-57
2023/02/08 21:23:17;;;;;;;41.37;18.73;;;;;;;-9.06;63.33;103507.22;1773036;81;21698;-59
2023/02/08 21:26:40;;;;;;;36.85;17.25;;;;;;;-9.04;63.41;103497.95;1773211;80;21181;-57
2023/02/08 21:30:17;;;;;;;35.85;17.02;;;;;;;-8.97;63.84;103494.08;1758465;80;21239;-56
2023/02/08 21:33:40;;;;;;;38.95;19.23;;;;;;;-8.97;63.84;103494.08;1773236;81;21386;-57
2023/02/08 21:37:00;;;;;;;36.10;18.00;;;;;;;-8.87;63.73;103489.38;1772425;80;21172;-56
2023/02/08 21:40:31;;;;;;;39.88;18.48;;;;;;;-8.75;63.90;103485.55;1760098;80;21827;-59
2023/02/08 21:43:49;;;;;;;45.15;20.70;;;;;;;-8.64;63.96;103490.56;1773258;80;21571;-58
2023/02/08 21:47:16;;;;;;;39.58;19.05;;;;;;;-8.56;63.94;103488.04;1773211;80;21252;-58
2023/02/08 21:57:55;;;;;;;48.80;22.90;;;;;;;-8.55;63.65;103474.78;1762600;81;21474;-58
2023/02/08 22:01:13;;;;;;;51.90;24.20;;;;;;;-8.58;63.58;103481.38;1773533;81;21339;-56
2023/02/08 22:08:04;;;;;;;56.15;24.50;;;;;;;-8.69;63.57;103475.47;1715322;83;21212;-59
2023/02/08 22:11:48;;;;;;;53.92;25.00;;;;;;;-8.66;63.56;103475.08;1770216;81;22001;-56
2023/02/08 22:15:23;;;;;;;52.70;23.55;;;;;;;-8.68;63.40;103470.17;1761200;80;21855;-56
